Time;durP1;ratioP1;P1;durP2;ratioP2;P2;SDS_P1;SDS_P2;PMS_P1;PMS_P2;Temp;Humidity;BMP_temperature;BMP_pressure;BME280_temperature;BME280_humidity;BME280_pressure;Samples;Min_cycle;Max_cycle;Signal;HPM_P1;HPM_P2
2022/03/11 00:02:18;;;;;;;12.20;8.40;;;10.80;38.60;;;;;;5057694;28;20222;-74
2022/03/11 00:04:45;;;;;;;10.10;7.30;;;10.80;38.70;;;;;;5060646;28;20534;-73
2022/03/11 00:07:11;;;;;;;10.03;7.83;;;10.80;38.80;;;;;;5064521;28;20202;-73
2022/03/11 00:09:37;;;;;;;12.10;7.50;;;10.80;38.60;;;;;;5058980;28;21014;-74
2022/03/11 00:12:04;;;;;;;9.50;7.90;;;10.90;38.50;;;;;;5061854;28;20449;-73
2022/03/11 00:14:30;;;;;;;12.40;8.17;;;10.90;38.50;;;;;;5064712;28;20241;-74
2022/03/11 00:16:55;;;;;;;9.50;7.30;;;10.80;38.80;;;;;;5054896;28;20441;-74
2022/03/11 00:19:21;;;;;;;10.60;8.10;;;10.60;38.70;;;;;;5062339;28;20199;-74
2022/03/11 00:21:46;;;;;;;9.57;7.73;;;10.50;38.70;;;;;;5063225;28;20183;-74
2022/03/11 00:24:12;;;;;;;8.40;6.80;;;10.50;38.80;;;;;;5042676;28;20324;-73
2022/03/11 00:26:38;;;;;;;10.77;7.10;;;10.40;38.60;;;;;;5043952;28;20270;-73
2022/03/11 00:29:03;;;;;;;10.70;8.10;;;10.40;38.80;;;;;;5062318;28;21024;-73
2022/03/11 00:31:29;;;;;;;9.60;7.50;;;10.40;38.80;;;;;;5064056;28;20555;-73
2022/03/11 00:33:55;;;;;;;10.50;9.50;;;10.30;39.10;;;;;;5058240;28;20206;-73
2022/03/11 00:36:22;;;;;;;8.50;6.60;;;10.20;39.00;;;;;;5060560;28;20179;-73
2022/03/11 00:38:47;;;;;;;12.83;7.83;;;10.20;39.30;;;;;;5060079;28;20236;-73
2022/03/11 00:41:13;;;;;;;11.20;7.10;;;10.30;39.20;;;;;;5053983;28;21132;-73
2022/03/11 00:43:39;;;;;;;8.27;6.50;;;10.10;39.30;;;;;;5061308;28;20198;-73
2022/03/11 00:46:04;;;;;;;8.93;7.27;;;10.30;39.20;;;;;;5059986;28;20637;-73
2022/03/11 00:48:30;;;;;;;8.00;6.30;;;10.50;38.90;;;;;;5061741;28;20389;-73
2022/03/11 00:50:57;;;;;;;8.87;6.90;;;10.40;38.70;;;;;;5059598;28;20827;-74
2022/03/11 00:53:24;;;;;;;10.30;6.60;;;10.40;39.00;;;;;;5060066;28;20699;-73
2022/03/11 00:55:50;;;;;;;7.67;6.83;;;10.50;38.80;;;;;;5060700;28;20516;-73
2022/03/11 00:58:16;;;;;;;11.43;7.07;;;10.40;39.00;;;;;;5058812;28;21010;-73
2022/03/11 01:00:42;;;;;;;8.20;6.93;;;10.50;38.90;;;;;;5058510;28;20230;-73
2022/03/11 01:03:07;;;;;;;9.27;7.07;;;10.60;38.80;;;;;;5059937;28;20441;-73
2022/03/11 01:05:33;;;;;;;16.17;8.50;;;10.50;39.00;;;;;;5059167;28;20191;-73
2022/03/11 01:07:59;;;;;;;8.20;6.43;;;10.50;38.90;;;;;;5060519;28;20218;-73
2022/03/11 01:10:25;;;;;;;10.50;6.40;;;10.40;39.20;;;;;;5059624;28;20218;-72
2022/03/11 01:12:50;;;;;;;11.53;7.03;;;10.40;39.30;;;;;;5059284;28;20206;-72
2022/03/11 01:15:16;;;;;;;7.47;6.40;;;10.20;39.40;;;;;;5039160;28;20244;-72
2022/03/11 01:17:41;;;;;;;8.50;6.50;;;10.20;39.50;;;;;;5057081;28;20186;-72
2022/03/11 01:20:10;;;;;;;13.37;7.57;;;10.40;39.60;;;;;;5061597;28;20199;-72
2022/03/11 01:22:36;;;;;;;8.07;6.00;;;10.30;39.60;;;;;;5059292;28;20229;-72
2022/03/11 01:25:02;;;;;;;8.03;6.23;;;10.30;39.70;;;;;;5061014;28;20495;-72
2022/03/11 01:27:28;;;;;;;8.77;6.70;;;10.20;39.90;;;;;;5057187;28;20522;-73
2022/03/11 01:29:53;;;;;;;9.67;6.67;;;10.10;40.30;;;;;;5056370;28;20484;-73
2022/03/11 01:32:19;;;;;;;9.20;6.90;;;10.20;40.30;;;;;;5043164;28;20186;-73
2022/03/11 01:34:44;;;;;;;8.30;7.10;;;10.20;40.20;;;;;;5057025;28;20211;-73
2022/03/11 01:37:10;;;;;;;9.80;6.93;;;10.20;40.30;;;;;;5059865;28;20209;-73
2022/03/11 01:39:36;;;;;;;11.73;6.90;;;10.20;40.50;;;;;;5058143;28;20194;-72
2022/03/11 01:42:01;;;;;;;11.90;6.90;;;10.20;40.70;;;;;;5055294;28;20672;-72
2022/03/11 01:44:27;;;;;;;9.03;6.70;;;10.00;40.80;;;;;;5057613;28;20209;-73
2022/03/11 01:46:53;;;;;;;8.53;7.00;;;9.90;42.00;;;;;;5038192;28;20202;-73
2022/03/11 01:49:20;;;;;;;10.97;6.87;;;10.00;41.30;;;;;;5054408;28;20465;-73
2022/03/11 01:51:46;;;;;;;15.27;7.27;;;9.90;42.30;;;;;;5060694;28;20862;-72
2022/03/11 01:54:12;;;;;;;9.53;7.30;;;9.80;42.40;;;;;;5055811;28;20547;-73
2022/03/11 01:56:39;;;;;;;12.20;7.67;;;9.70;42.70;;;;;;5061548;28;20425;-73
2022/03/11 01:59:06;;;;;;;9.60;7.10;;;9.80;42.90;;;;;;5038959;28;20187;-73
2022/03/11 02:01:32;;;;;;;8.80;7.80;;;9.80;43.20;;;;;;5062489;28;20988;-73
2022/03/11 02:03:58;;;;;;;10.50;7.37;;;9.70;43.40;;;;;;5059047;28;20457;-73
2022/03/11 02:06:24;;;;;;;10.10;7.67;;;9.70;43.50;;;;;;5058636;28;20497;-73
2022/03/11 02:08:54;;;;;;;11.73;7.90;;;9.60;43.90;;;;;;5055404;28;20195;-73
2022/03/11 02:11:20;;;;;;;8.80;7.90;;;9.60;44.20;;;;;;5057837;28;20480;-73
2022/03/11 02:13:46;;;;;;;12.77;7.50;;;9.50;44.30;;;;;;5062628;28;20505;-73
2022/03/11 02:16:14;;;;;;;14.17;8.80;;;9.40;44.60;;;;;;5039958;28;20210;-73
2022/03/11 02:18:40;;;;;;;12.37;9.17;;;9.30;45.00;;;;;;5057418;28;20441;-73
2022/03/11 02:21:07;;;;;;;10.40;7.70;;;9.20;45.30;;;;;;5057822;28;20543;-74
2022/03/11 02:23:51;;;;;;;14.00;8.50;;;9.20;45.50;;;;;;5060161;28;20433;-74
2022/03/11 02:26:18;;;;;;;11.93;8.40;;;9.30;45.60;;;;;;5061369;28;20448;-74
2022/03/11 02:28:45;;;;;;;9.53;7.80;;;9.40;45.50;;;;;;5062618;28;20567;-74
2022/03/11 02:31:11;;;;;;;15.37;8.60;;;9.30;45.70;;;;;;5045032;28;20833;-74
2022/03/11 02:33:37;;;;;;;11.17;7.80;;;9.20;45.90;;;;;;5062013;28;20464;-74
2022/03/11 02:36:03;;;;;;;9.57;8.57;;;9.30;46.60;;;;;;5062475;28;20188;-74
2022/03/11 02:38:29;;;;;;;13.37;8.70;;;9.40;46.10;;;;;;5043075;28;20435;-73
2022/03/11 02:40:55;;;;;;;15.63;9.47;;;9.40;46.20;;;;;;5055111;28;20449;-73
2022/03/11 02:43:21;;;;;;;12.27;9.70;;;9.30;46.50;;;;;;5055938;28;20916;-73
2022/03/11 02:45:47;;;;;;;15.30;9.17;;;9.30;46.50;;;;;;5056375;28;20449;-74
2022/03/11 02:48:12;;;;;;;14.57;9.70;;;9.40;46.80;;;;;;5058871;28;20965;-74
2022/03/11 02:50:38;;;;;;;17.83;9.73;;;9.20;46.80;;;;;;5063504;28;20219;-74
2022/03/11 02:53:04;;;;;;;12.30;9.97;;;9.20;47.20;;;;;;5062994;28;20207;-74
2022/03/11 02:55:29;;;;;;;12.60;8.37;;;9.00;47.20;;;;;;5063362;28;20187;-73
2022/03/11 02:57:55;;;;;;;12.37;9.80;;;8.80;47.70;;;;;;5064242;28;20206;-73
2022/03/11 03:00:21;;;;;;;16.17;10.00;;;8.90;48.00;;;;;;5059137;28;20299;-73
2022/03/11 03:02:47;;;;;;;12.33;8.90;;;8.60;48.30;;;;;;5065424;28;20190;-74
2022/03/11 03:05:13;;;;;;;13.13;10.20;;;8.70;48.40;;;;;;5062139;28;20484;-73
2022/03/11 03:07:39;;;;;;;12.07;9.97;;;8.70;48.30;;;;;;5062818;28;20183;-73
2022/03/11 03:10:06;;;;;;;14.43;9.53;;;8.80;48.30;;;;;;5063529;28;20551;-73
2022/03/11 03:12:32;;;;;;;11.20;9.33;;;8.70;48.40;;;;;;5058832;28;20832;-73
2022/03/11 03:14:57;;;;;;;11.23;9.10;;;8.80;48.30;;;;;;5058659;28;20449;-73
2022/03/11 03:17:23;;;;;;;12.30;10.20;;;8.80;48.40;;;;;;5054378;28;20231;-71
2022/03/11 03:19:52;;;;;;;12.37;8.93;;;8.80;48.60;;;;;;5058621;28;20205;-72
2022/03/11 03:22:18;;;;;;;13.40;9.30;;;8.80;48.80;;;;;;5059466;28;20532;-72
2022/03/11 03:24:43;;;;;;;12.37;9.60;;;8.60;48.90;;;;;;5064573;28;20880;-72
2022/03/11 03:27:10;;;;;;;14.97;10.07;;;8.70;48.90;;;;;;5060045;28;20183;-72
2022/03/11 03:29:36;;;;;;;15.37;11.23;;;8.80;48.90;;;;;;5058788;28;20198;-72
2022/03/11 03:32:02;;;;;;;14.87;10.70;;;8.60;49.00;;;;;;5062127;28;20479;-72
2022/03/11 03:34:31;;;;;;;11.93;9.17;;;8.60;49.40;;;;;;5046030;28;21126;-72
2022/03/11 03:36:58;;;;;;;16.20;10.87;;;8.50;49.70;;;;;;5059230;28;20441;-72
2022/03/11 03:39:24;;;;;;;15.30;10.70;;;8.60;49.90;;;;;;5061517;28;20499;-72
2022/03/11 03:41:51;;;;;;;17.37;11.30;;;8.70;49.80;;;;;;5041325;28;21004;-72
2022/03/11 03:44:17;;;;;;;15.30;11.57;;;8.60;49.90;;;;;;5059178;28;20441;-72
2022/03/11 03:46:42;;;;;;;26.63;11.40;;;8.60;50.10;;;;;;5058366;28;20508;-73
2022/03/11 03:49:09;;;;;;;13.60;10.87;;;8.70;50.20;;;;;;5058397;28;20233;-73
2022/03/11 03:51:34;;;;;;;14.07;10.10;;;8.60;50.30;;;;;;5063664;28;20195;-73
2022/03/11 03:54:00;;;;;;;15.70;10.73;;;8.50;50.50;;;;;;5060492;28;20810;-73
2022/03/11 03:56:26;;;;;;;15.30;10.93;;;8.40;50.80;;;;;;5057282;28;20182;-73
2022/03/11 03:58:51;;;;;;;15.50;11.60;;;8.40;50.70;;;;;;5059983;28;20184;-73
2022/03/11 04:01:17;;;;;;;14.40;10.80;;;8.30;51.00;;;;;;5058790;28;20187;-72
2022/03/11 04:03:42;;;;;;;17.93;11.67;;;8.40;51.10;;;;;;5063029;28;20183;-74
2022/03/11 04:06:08;;;;;;;15.07;11.80;;;8.50;51.30;;;;;;5064338;28;20194;-74
2022/03/11 04:08:34;;;;;;;19.40;11.77;;;8.50;51.30;;;;;;5060923;28;20883;-74
2022/03/11 04:10:59;;;;;;;15.73;12.00;;;8.40;51.40;;;;;;5043288;28;20364;-74
2022/03/11 04:13:25;;;;;;;15.37;12.43;;;8.40;51.50;;;;;;5057501;28;20293;-74
2022/03/11 04:15:50;;;;;;;18.20;12.13;;;8.40;51.70;;;;;;5060112;28;20190;-74
2022/03/11 04:18:16;;;;;;;17.10;12.17;;;8.40;51.70;;;;;;5060491;28;20543;-74
2022/03/11 04:20:41;;;;;;;17.30;12.57;;;8.50;51.70;;;;;;5063694;28;20616;-74
2022/03/11 04:23:07;;;;;;;17.10;12.33;;;8.50;51.70;;;;;;5042273;28;20191;-73
2022/03/11 04:25:33;;;;;;;19.23;12.40;;;8.40;51.70;;;;;;5056701;28;20195;-74
2022/03/11 04:27:59;;;;;;;21.33;12.00;;;8.40;51.80;;;;;;5058751;28;20182;-73
2022/03/11 04:30:24;;;;;;;21.03;12.50;;;8.40;52.10;;;;;;5058398;28;20598;-73
2022/03/11 04:32:50;;;;;;;18.03;12.77;;;8.40;52.20;;;;;;5059561;28;20678;-74
2022/03/11 04:35:15;;;;;;;19.97;13.77;;;8.30;52.40;;;;;;5060853;28;20666;-75
2022/03/11 04:37:41;;;;;;;20.53;13.20;;;8.30;52.30;;;;;;5058031;28;20332;-73
2022/03/11 04:40:07;;;;;;;22.13;13.37;;;8.20;52.30;;;;;;5059703;28;20209;-74
2022/03/11 04:42:34;;;;;;;17.50;12.93;;;8.30;52.40;;;;;;5039618;28;20332;-74
2022/03/11 04:45:01;;;;;;;17.37;13.23;;;8.00;52.70;;;;;;5061423;28;20455;-74
2022/03/11 04:47:26;;;;;;;21.10;13.03;;;8.10;52.80;;;;;;5061814;28;20429;-75
2022/03/11 04:49:52;;;;;;;20.73;14.40;;;8.20;52.40;;;;;;5061223;28;20800;-74
2022/03/11 04:52:18;;;;;;;18.13;12.40;;;8.30;52.40;;;;;;5061947;28;20210;-74
2022/03/11 04:54:43;;;;;;;18.60;12.97;;;8.10;52.50;;;;;;5061262;28;20597;-72
2022/03/11 04:57:09;;;;;;;20.70;13.27;;;8.10;52.80;;;;;;5058848;28;20762;-72
2022/03/11 04:59:34;;;;;;;22.90;13.60;;;7.80;52.90;;;;;;5063482;28;20242;-72
2022/03/11 05:02:00;;;;;;;20.93;13.37;;;7.80;53.20;;;;;;5059424;28;20230;-72
2022/03/11 05:04:26;;;;;;;19.00;12.90;;;7.90;53.40;;;;;;5054872;28;20325;-73
2022/03/11 05:06:51;;;;;;;19.43;13.30;;;7.80;53.40;;;;;;5058934;28;20660;-73
2022/03/11 05:09:17;;;;;;;17.30;12.87;;;7.80;53.50;;;;;;5057923;28;20569;-73
2022/03/11 05:11:42;;;;;;;20.90;13.50;;;7.70;53.80;;;;;;5041880;28;20185;-73
2022/03/11 05:14:08;;;;;;;20.50;14.47;;;7.90;53.70;;;;;;5059200;28;20255;-73
2022/03/11 05:16:34;;;;;;;17.80;12.70;;;7.80;53.80;;;;;;5061343;28;20191;-73
2022/03/11 05:18:59;;;;;;;23.50;13.50;;;7.60;53.60;;;;;;5040310;28;20183;-73
2022/03/11 05:21:25;;;;;;;18.30;12.70;;;7.70;54.00;;;;;;5059277;28;20200;-73
2022/03/11 05:23:50;;;;;;;19.53;13.10;;;7.70;54.20;;;;;;5055851;28;22705;-73
2022/03/11 05:26:25;;;;;;;19.73;14.20;;;7.90;53.80;;;;;;5043449;28;20219;-73
2022/03/11 05:29:00;;;;;;;18.40;13.17;;;7.90;53.50;;;;;;5059215;28;20186;-73
2022/03/11 05:31:27;;;;;;;19.40;13.20;;;7.90;53.60;;;;;;5055240;28;20464;-73
2022/03/11 05:33:54;;;;;;;17.93;13.90;;;7.80;54.00;;;;;;5062497;28;20477;-73
2022/03/11 05:36:20;;;;;;;22.67;14.17;;;7.80;53.80;;;;;;5054762;28;20464;-73
2022/03/11 05:38:45;;;;;;;20.80;13.93;;;7.90;53.60;;;;;;5053564;28;20528;-73
2022/03/11 05:41:11;;;;;;;21.40;14.13;;;7.80;53.90;;;;;;5062158;28;20206;-73
2022/03/11 05:43:37;;;;;;;20.63;13.70;;;7.70;53.90;;;;;;5059782;28;20708;-73
2022/03/11 05:46:03;;;;;;;23.23;13.90;;;7.60;54.30;;;;;;5061325;28;20219;-73
2022/03/11 05:48:29;;;;;;;25.13;13.53;;;7.40;54.30;;;;;;5059365;28;20232;-73
2022/03/11 05:50:55;;;;;;;17.53;13.33;;;7.50;54.60;;;;;;5060202;28;20465;-73
2022/03/11 05:53:21;;;;;;;21.30;14.90;;;7.70;54.50;;;;;;5057783;28;20472;-73
2022/03/11 05:55:46;;;;;;;21.10;14.40;;;7.80;54.10;;;;;;5056804;28;20183;-73
2022/03/11 05:58:12;;;;;;;19.53;13.70;;;7.70;54.00;;;;;;5057331;28;20230;-73
2022/03/11 06:00:38;;;;;;;18.60;13.57;;;7.60;54.70;;;;;;5058342;28;20678;-73
2022/03/11 06:03:04;;;;;;;22.40;14.80;;;7.60;55.30;;;;;;5058288;28;20591;-73
2022/03/11 06:05:29;;;;;;;21.07;14.00;;;7.70;54.70;;;;;;5059216;28;20503;-73
2022/03/11 06:07:55;;;;;;;17.43;13.97;;;7.60;54.60;;;;;;5059211;28;20198;-73
2022/03/11 06:10:21;;;;;;;19.57;14.23;;;7.60;54.50;;;;;;5038999;28;20700;-74
2022/03/11 06:12:46;;;;;;;19.80;14.60;;;7.70;55.10;;;;;;5041643;28;20292;-72
2022/03/11 06:15:12;;;;;;;19.60;14.23;;;7.60;54.30;;;;;;5057502;28;20441;-72
2022/03/11 06:17:38;;;;;;;23.10;14.50;;;7.50;54.80;;;;;;5054822;28;20186;-72
2022/03/11 06:20:05;;;;;;;20.33;14.43;;;7.50;54.80;;;;;;5058837;28;20217;-72
2022/03/11 06:22:31;;;;;;;21.70;14.50;;;7.60;54.80;;;;;;5062028;28;20455;-73
2022/03/11 06:24:59;;;;;;;23.10;13.67;;;7.70;54.70;;;;;;5059059;28;20441;-73
2022/03/11 06:27:25;;;;;;;25.00;15.07;;;7.70;54.50;;;;;;5061801;28;20196;-72
2022/03/11 06:29:51;;;;;;;19.70;14.10;;;7.70;54.60;;;;;;5062564;28;20571;-73
2022/03/11 06:32:17;;;;;;;19.97;14.00;;;7.50;54.50;;;;;;5063047;28;20468;-73
2022/03/11 06:34:43;;;;;;;19.73;14.33;;;7.40;54.60;;;;;;5060066;28;20658;-73
2022/03/11 06:37:08;;;;;;;24.63;14.30;;;7.50;54.90;;;;;;5059188;28;20566;-73
2022/03/11 06:39:34;;;;;;;22.47;14.90;;;7.60;54.80;;;;;;5065766;28;20229;-73
2022/03/11 06:41:59;;;;;;;19.13;14.20;;;7.60;54.60;;;;;;5063877;28;20183;-73
2022/03/11 06:44:25;;;;;;;19.23;13.70;;;7.50;54.70;;;;;;5039953;28;20357;-73
2022/03/11 06:46:51;;;;;;;17.60;13.90;;;7.60;55.00;;;;;;5061835;28;20183;-75
2022/03/11 06:49:16;;;;;;;22.77;14.73;;;7.60;54.70;;;;;;5065362;28;20226;-72
2022/03/11 06:51:42;;;;;;;23.60;14.30;;;7.70;54.80;;;;;;5065514;28;20211;-73
2022/03/11 06:54:08;;;;;;;19.50;13.00;;;7.60;54.70;;;;;;5060087;28;20217;-73
2022/03/11 06:56:35;;;;;;;22.77;15.53;;;7.60;55.30;;;;;;5060905;28;20187;-72
2022/03/11 06:59:04;;;;;;;22.10;14.00;;;7.50;54.90;;;;;;5056823;28;20190;-72
2022/03/11 07:01:30;;;;;;;20.17;13.60;;;7.20;55.10;;;;;;5057967;28;20518;-73
2022/03/11 07:03:56;;;;;;;23.93;15.37;;;7.30;55.70;;;;;;5057259;28;20450;-73
2022/03/11 07:06:22;;;;;;;19.63;13.97;;;7.10;55.50;;;;;;5057371;28;20445;-75
2022/03/11 07:08:47;;;;;;;19.33;13.37;;;7.20;56.00;;;;;;5038093;28;20433;-74
2022/03/11 07:11:13;;;;;;;16.67;13.17;;;7.30;55.50;;;;;;5059911;28;20301;-74
2022/03/11 07:13:38;;;;;;;23.33;14.60;;;7.40;55.40;;;;;;5041428;28;20209;-74
2022/03/11 07:16:05;;;;;;;19.93;13.33;;;7.60;55.10;;;;;;5058734;28;20180;-74
2022/03/11 07:18:31;;;;;;;19.53;14.37;;;7.60;55.00;;;;;;5059679;28;20206;-75
2022/03/11 07:20:56;;;;;;;21.20;14.63;;;7.50;54.90;;;;;;5043046;28;20463;-75
2022/03/11 07:23:23;;;;;;;18.83;14.17;;;7.50;55.20;;;;;;5044778;28;20470;-74
2022/03/11 07:25:50;;;;;;;24.80;15.30;;;7.40;55.10;;;;;;5056759;28;20280;-75
2022/03/11 07:28:16;;;;;;;18.30;13.13;;;7.40;55.10;;;;;;5060304;28;20926;-75
2022/03/11 07:30:41;;;;;;;21.50;14.60;;;7.60;55.20;;;;;;5064727;28;20583;-74
2022/03/11 07:33:09;;;;;;;20.63;13.60;;;7.60;54.80;;;;;;5061016;28;20216;-73
2022/03/11 07:35:35;;;;;;;21.70;14.63;;;7.60;54.70;;;;;;5041734;28;20183;-72
2022/03/11 07:38:01;;;;;;;21.87;13.70;;;7.70;54.80;;;;;;5054980;28;20433;-74
2022/03/11 07:40:26;;;;;;;20.53;13.90;;;7.70;54.70;;;;;;5058617;28;20989;-74
2022/03/11 07:42:52;;;;;;;22.63;15.23;;;7.80;54.70;;;;;;5062097;28;20194;-73
2022/03/11 07:45:18;;;;;;;21.70;13.70;;;7.80;54.40;;;;;;5059718;28;20193;-74
2022/03/11 07:47:44;;;;;;;20.50;13.97;;;7.80;54.20;;;;;;5059747;28;20445;-75
2022/03/11 07:50:12;;;;;;;19.57;12.90;;;7.60;55.00;;;;;;5058068;28;20214;-73
2022/03/11 07:52:38;;;;;;;21.00;13.87;;;7.80;54.60;;;;;;5061357;28;20843;-74
2022/03/11 07:55:06;;;;;;;19.70;13.20;;;7.90;54.30;;;;;;5056594;28;20495;-73
2022/03/11 07:57:32;;;;;;;19.40;13.50;;;8.00;54.00;;;;;;5058628;28;20433;-74
2022/03/11 08:00:00;;;;;;;21.20;12.43;;;8.00;54.10;;;;;;5044150;28;20469;-74
2022/03/11 08:02:27;;;;;;;16.40;12.20;;;8.10;53.80;;;;;;5057810;28;20564;-73
2022/03/11 08:04:53;;;;;;;20.03;12.27;;;8.10;53.90;;;;;;5049885;28;20449;-75
2022/03/11 08:07:18;;;;;;;20.13;12.70;;;8.10;53.80;;;;;;5061242;28;20459;-75
2022/03/11 08:09:44;;;;;;;19.60;14.77;;;8.20;53.70;;;;;;5057575;28;20264;-76
2022/03/11 08:12:12;;;;;;;24.30;17.33;;;8.30;53.50;;;;;;5055095;28;20278;-76
2022/03/11 08:14:37;;;;;;;18.50;14.53;;;8.30;54.00;;;;;;5050568;28;20352;-75
2022/03/11 08:17:03;;;;;;;21.60;13.70;;;8.30;53.80;;;;;;5036336;28;21065;-77
2022/03/11 08:19:29;;;;;;;19.13;13.07;;;8.40;53.90;;;;;;5061810;28;20211;-77
2022/03/11 08:21:56;;;;;;;22.17;14.67;;;8.50;53.70;;;;;;5043537;28;20468;-70
2022/03/11 08:24:22;;;;;;;24.37;14.83;;;8.50;54.00;;;;;;5063149;28;20183;-69
2022/03/11 08:26:48;;;;;;;17.80;13.73;;;8.60;53.30;;;;;;5062355;28;20451;-68
2022/03/11 08:29:15;;;;;;;21.47;13.70;;;8.70;53.10;;;;;;5063905;28;20206;-72
2022/03/11 08:31:40;;;;;;;17.87;13.07;;;8.70;52.80;;;;;;5062565;28;20437;-70
2022/03/11 08:34:06;;;;;;;20.30;12.93;;;8.70;53.10;;;;;;5062912;28;20475;-74
2022/03/11 08:36:32;;;;;;;20.47;15.07;;;8.70;53.00;;;;;;5062361;28;20226;-72
2022/03/11 08:38:58;;;;;;;17.80;14.10;;;8.50;53.30;;;;;;5063142;28;20436;-76
2022/03/11 08:41:25;;;;;;;22.30;14.13;;;8.50;53.20;;;;;;5063680;28;20191;-73
2022/03/11 08:43:51;;;;;;;21.73;15.47;;;8.70;53.20;;;;;;5062457;28;20191;-73
2022/03/11 08:46:17;;;;;;;23.03;13.70;;;8.70;53.00;;;;;;5044587;28;20448;-73
2022/03/11 08:48:43;;;;;;;19.40;14.80;;;8.70;53.00;;;;;;5063727;28;20198;-73
2022/03/11 08:51:09;;;;;;;19.13;14.20;;;8.70;52.60;;;;;;5045273;28;20449;-75
2022/03/11 08:53:35;;;;;;;18.90;13.40;;;8.70;52.70;;;;;;5047933;28;20977;-73
2022/03/11 08:56:01;;;;;;;18.70;13.47;;;8.80;52.90;;;;;;5044432;28;20439;-72
2022/03/11 08:58:27;;;;;;;19.07;12.90;;;8.60;52.30;;;;;;5063646;28;20183;-75
2022/03/11 09:00:52;;;;;;;19.20;13.77;;;8.70;52.40;;;;;;5062904;28;21289;-79
2022/03/11 09:03:18;;;;;;;18.37;13.60;;;8.80;52.00;;;;;;5046495;28;20196;-74
2022/03/11 09:05:44;;;;;;;19.77;13.87;;;8.80;52.00;;;;;;5063152;28;20568;-72
2022/03/11 09:08:09;;;;;;;15.40;11.80;;;8.80;51.90;;;;;;5047305;28;20191;-73
2022/03/11 09:10:36;;;;;;;15.80;11.73;;;9.00;51.60;;;;;;5064767;28;20728;-74
2022/03/11 09:13:02;;;;;;;15.50;11.63;;;9.10;51.30;;;;;;5060440;28;20269;-74
2022/03/11 09:15:28;;;;;;;20.67;14.10;;;9.10;50.80;;;;;;5060240;28;20433;-74
2022/03/11 09:17:54;;;;;;;17.60;13.00;;;9.20;50.90;;;;;;5061292;28;20490;-73
2022/03/11 09:20:22;;;;;;;16.30;12.73;;;9.20;50.90;;;;;;5063079;28;20449;-73
2022/03/11 09:22:48;;;;;;;22.80;13.53;;;9.30;50.60;;;;;;5061454;28;20285;-71
2022/03/11 09:25:16;;;;;;;17.50;12.00;;;9.40;50.90;;;;;;5044084;28;20621;-72
2022/03/11 09:27:42;;;;;;;22.37;12.73;;;9.40;50.80;;;;;;5062238;28;20285;-69
2022/03/11 09:30:08;;;;;;;17.03;13.27;;;9.50;50.70;;;;;;5061652;28;20556;-72
2022/03/11 09:32:34;;;;;;;17.37;12.23;;;9.50;50.40;;;;;;5062440;28;20183;-70
2022/03/11 09:35:00;;;;;;;20.57;12.50;;;9.50;50.40;;;;;;5047505;28;20512;-72
2022/03/11 09:37:28;;;;;;;18.83;11.97;;;9.60;50.30;;;;;;5061827;28;20632;-72
2022/03/11 09:39:54;;;;;;;17.73;12.43;;;9.70;50.20;;;;;;5063007;28;20210;-70
2022/03/11 09:42:20;;;;;;;18.03;13.67;;;9.70;50.10;;;;;;5045438;28;20914;-71
2022/03/11 09:44:54;;;;;;;17.73;12.53;;;9.70;49.90;;;;;;5056072;28;20464;-72
2022/03/11 09:47:20;;;;;;;19.00;12.80;;;9.90;50.40;;;;;;5054742;28;20585;-71
2022/03/11 09:49:50;;;;;;;18.23;12.70;;;9.90;49.70;;;;;;5061435;28;20480;-70
2022/03/11 09:52:17;;;;;;;21.40;14.03;;;9.90;49.90;;;;;;5042037;28;20442;-69
2022/03/11 09:54:45;;;;;;;20.13;13.87;;;9.90;50.20;;;;;;5076133;22;20596;-70
2022/03/11 09:57:12;;;;;;;20.60;13.67;;;9.90;49.80;;;;;;5059483;28;20866;-69
2022/03/11 09:59:38;;;;;;;19.03;13.30;;;9.90;50.10;;;;;;5057041;28;20488;-69
2022/03/11 10:02:12;;;;;;;20.53;13.20;;;10.00;49.70;;;;;;5055767;28;20450;-68
2022/03/11 10:04:43;;;;;;;20.10;14.03;;;10.10;49.40;;;;;;5049719;28;20211;-69
2022/03/11 10:07:21;;;;;;;16.60;13.37;;;10.10;49.00;;;;;;5038532;28;20429;-67
2022/03/11 10:09:46;;;;;;;19.97;14.73;;;10.10;49.00;;;;;;5021699;28;20499;-68
2022/03/11 10:12:20;;;;;;;20.80;13.80;;;10.30;48.80;;;;;;5037869;28;20461;-67
2022/03/11 10:14:58;;;;;;;19.03;13.07;;;10.30;49.10;;;;;;5035834;28;20291;-68
2022/03/11 10:17:24;;;;;;;18.47;12.40;;;10.30;48.80;;;;;;5039990;28;20410;-67
2022/03/11 10:20:04;;;;;;;20.70;13.77;;;10.40;48.70;;;;;;5035717;28;20447;-67
2022/03/11 10:22:31;;;;;;;20.50;12.10;;;10.50;48.40;;;;;;5017254;28;20804;-67
2022/03/11 10:25:09;;;;;;;18.20;11.80;;;10.60;48.70;;;;;;5036988;28;20504;-67
2022/03/11 10:27:54;;;;;;;23.47;12.33;;;10.70;48.60;;;;;;5038904;28;21001;-68
2022/03/11 10:30:20;;;;;;;23.70;13.03;;;10.80;48.40;;;;;;5041409;28;20513;-68
2022/03/11 10:32:57;;;;;;;20.07;12.17;;;10.80;48.40;;;;;;5038399;28;20446;-68
2022/03/11 10:35:47;;;;;;;18.63;13.40;;;10.90;48.30;;;;;;5037579;28;20505;-67
2022/03/11 10:38:18;;;;;;;17.37;12.20;;;11.00;48.00;;;;;;5036644;28;20526;-68
2022/03/11 10:40:56;;;;;;;23.63;12.10;;;11.00;47.90;;;;;;5035255;28;20431;-69
2022/03/11 10:43:30;;;;;;;14.33;11.00;;;11.10;47.80;;;;;;5035215;28;20446;-70
2022/03/11 10:46:02;;;;;;;18.83;12.20;;;11.20;47.70;;;;;;5036052;28;20495;-70
2022/03/11 10:48:53;;;;;;;20.07;13.27;;;11.30;48.00;;;;;;5035299;28;20496;-69
2022/03/11 10:51:26;;;;;;;17.27;12.97;;;11.40;47.70;;;;;;5037640;28;20966;-70
2022/03/11 10:53:52;;;;;;;17.87;11.83;;;11.40;47.30;;;;;;5035909;28;20852;-69
2022/03/11 10:56:29;;;;;;;19.50;13.63;;;11.40;47.80;;;;;;5037659;28;20435;-70
2022/03/11 10:58:58;;;;;;;19.17;13.30;;;11.60;47.70;;;;;;5036875;28;20282;-67
2022/03/11 11:01:40;;;;;;;23.40;13.20;;;11.60;47.40;;;;;;5040615;28;20430;-66
2022/03/11 11:04:08;;;;;;;20.30;12.40;;;11.70;47.40;;;;;;5039032;28;20453;-67
2022/03/11 11:06:35;;;;;;;18.23;13.30;;;11.80;47.20;;;;;;5035864;28;20491;-67
2022/03/11 11:09:02;;;;;;;17.40;13.63;;;11.80;47.30;;;;;;5042338;28;20937;-67
2022/03/11 11:11:29;;;;;;;20.10;12.80;;;11.90;47.40;;;;;;5042173;28;20882;-68
2022/03/11 11:13:55;;;;;;;16.63;11.63;;;11.90;47.10;;;;;;5039382;28;20465;-67
2022/03/11 11:16:26;;;;;;;18.63;13.00;;;12.00;47.10;;;;;;5042012;28;20922;-67
2022/03/11 11:18:53;;;;;;;16.80;11.77;;;12.10;46.70;;;;;;5043140;28;20208;-68
2022/03/11 11:21:24;;;;;;;16.47;11.93;;;12.20;46.30;;;;;;5045811;28;20549;-67
2022/03/11 11:23:54;;;;;;;18.00;13.10;;;12.20;46.50;;;;;;5037763;28;20524;-68
2022/03/11 11:26:22;;;;;;;15.07;12.53;;;12.40;47.00;;;;;;5040282;28;20693;-68
2022/03/11 11:28:48;;;;;;;17.63;12.17;;;12.50;46.50;;;;;;5043041;28;20426;-66
2022/03/11 11:31:17;;;;;;;18.27;13.10;;;12.60;47.00;;;;;;5042835;28;20523;-66
2022/03/11 11:33:45;;;;;;;17.37;11.97;;;12.60;46.40;;;;;;5039430;28;20715;-66
2022/03/11 11:36:10;;;;;;;19.40;15.77;;;12.60;46.10;;;;;;5040809;28;20729;-66
2022/03/11 11:38:38;;;;;;;17.33;12.50;;;12.70;46.10;;;;;;5041068;28;20446;-66
2022/03/11 11:41:24;;;;;;;22.90;13.50;;;12.80;46.10;;;;;;5025661;28;20180;-66
2022/03/11 11:43:58;;;;;;;18.80;12.57;;;12.90;45.90;;;;;;5037496;28;21030;-66
2022/03/11 11:46:25;;;;;;;16.77;12.47;;;13.00;45.30;;;;;;5044581;28;20415;-66
2022/03/11 11:48:51;;;;;;;15.80;12.70;;;13.00;45.20;;;;;;5041416;28;20521;-66
2022/03/11 11:51:20;;;;;;;16.20;11.43;;;13.10;45.30;;;;;;5041407;28;20437;-66
2022/03/11 11:53:46;;;;;;;16.10;12.40;;;13.10;45.30;;;;;;5035332;28;20203;-66
2022/03/11 11:56:26;;;;;;;16.33;11.23;;;13.30;45.00;;;;;;5022448;28;20422;-66
2022/03/11 11:58:53;;;;;;;15.47;11.43;;;13.40;44.50;;;;;;5038644;28;20546;-66
2022/03/11 12:01:44;;;;;;;16.37;11.57;;;13.40;44.50;;;;;;5038085;28;21146;-66
2022/03/11 12:04:35;;;;;;;16.03;12.37;;;13.60;44.60;;;;;;5040506;28;20450;-68
2022/03/11 12:07:03;;;;;;;16.57;12.70;;;13.80;44.30;;;;;;5038074;28;20961;-67
2022/03/11 12:10:01;;;;;;;15.30;12.10;;;14.00;43.90;;;;;;5041047;28;20431;-67
2022/03/11 12:15:01;;;;;;;20.33;13.33;;;14.70;43.30;;;;;;5043245;28;20967;-67
2022/03/11 12:17:51;;;;;;;19.67;11.60;;;15.20;43.10;;;;;;5038825;28;20179;-68
2022/03/11 12:20:38;;;;;;;14.90;11.47;;;15.80;42.00;;;;;;5036298;28;20456;-66
2022/03/11 12:23:14;;;;;;;18.30;14.00;;;16.40;41.30;;;;;;5038385;28;20437;-67
2022/03/11 12:25:54;;;;;;;18.53;11.90;;;16.90;40.50;;;;;;5037358;28;20857;-65
2022/03/11 12:28:33;;;;;;;14.83;12.23;;;17.90;40.00;;;;;;5035636;28;21002;-64
2022/03/11 12:31:21;;;;;;;16.27;12.47;;;18.50;38.80;;;;;;5037195;28;20426;-67
2022/03/11 12:33:48;;;;;;;15.57;11.70;;;19.20;38.10;;;;;;5040049;28;20476;-67
2022/03/11 12:36:17;;;;;;;19.17;11.40;;;19.80;37.50;;;;;;5041855;28;20513;-68
2022/03/11 12:38:43;;;;;;;18.00;12.03;;;19.80;37.30;;;;;;5018443;28;20420;-68
2022/03/11 12:41:14;;;;;;;14.83;12.00;;;20.70;36.50;;;;;;5042645;28;20488;-66
2022/03/11 12:43:43;;;;;;;15.43;13.00;;;21.00;35.70;;;;;;5039202;28;20492;-68